الصفحة الرئيسية
METAR-TAF:

METAR-TAF

مطار :

كانزاس سيتي, ميزوري, الولايات المتحدة

دائرة عرض: 39-17-50N, خط طول: 094-43-50W, ارتفاع: 312 متر

مراقبة الطقس الحالي

تاريخ ووقت الإصدار 47 دقيقة قبل الساعة 09:53UTC
ريح 5 عقدة من الجنوب/الجنوب الشرقي
درجة الحرارة -7°درجة مئوية
الرطوبة 79%
ضغط 1032 hPa
الرؤية: 16.1 كم
سماء صافية

METAR: KMCI 140953Z 16005KT 10SM CLR M07/M10 A3048 RMK AO2 SLP335 T10721100

زمن: 04:40 (10:40 UTC)

توقعات

تاريخ ووقت الإصدار 5ساعات و 17 دقيقة قبل الساعة 05:23UTC
التوقعات صالحة من14 الساعة 06 UTC إلى 15 الساعة 06 UTC
ريح 8 عقدة من الجنوب
الرؤية: 10 كم
سماء صافية

TAF: KMCI 140523Z 1406/1506 17008KT P6SM SKC

أرصاد الطقس والتوقعات من أكثر من 4000 مطار (تقارير الطقس للمطار METAR والتنبؤ بالطقس بالمطارTAF).

المحطات المتاحة هي النقط الصفراء والحمراء على الخريطة.

حرك المؤشر فوق النقطة لمعرفة اسم المحطة.

ثم انقر لمعرفة أرصاد وتوقعات الطقس.

لتغيير الخارطة: اضغط على الأزرار الخضراء مع رمز الصليب الأسود للتكبير. على الزر الأخضر مع شرطة للتصغير، أو على الأسهم الخضراء للخرائط المجاورة.


METAR-TAF: